Time;durP1;ratioP1;P1;durP2;ratioP2;P2;SDS_P1;SDS_P2;PMS_P1;PMS_P2;Temp;Humidity;BMP_temperature;BMP_pressure;BME280_temperature;BME280_humidity;BME280_pressure;Samples;Min_cycle;Max_cycle;Signal;HPM_P1;HPM_P2
2023/10/14 00:01:35;;;;;;;3.83;3.53;;;26.10;64.20;;;;;;5041275;28;20544;-73
2023/10/14 00:04:07;;;;;;;3.27;2.90;;;26.10;64.30;;;;;;5046645;28;20466;-73
2023/10/14 00:06:38;;;;;;;4.40;3.63;;;26.10;64.20;;;;;;5051359;28;20469;-72
2023/10/14 00:09:11;;;;;;;4.10;3.70;;;26.10;64.10;;;;;;5050108;28;20785;-72
2023/10/14 00:11:43;;;;;;;3.87;3.47;;;26.10;64.20;;;;;;5051256;28;20984;-72
2023/10/14 00:14:15;;;;;;;3.80;3.50;;;26.10;64.20;;;;;;5031485;28;20435;-72
2023/10/14 00:16:50;;;;;;;3.67;3.33;;;26.10;64.20;;;;;;5034625;28;20438;-72
2023/10/14 00:19:19;;;;;;;3.43;3.23;;;26.10;64.20;;;;;;5042322;28;20458;-72
2023/10/14 00:21:49;;;;;;;3.63;3.07;;;26.10;64.20;;;;;;5049038;28;20818;-73
2023/10/14 00:24:26;;;;;;;3.50;3.00;;;26.10;63.90;;;;;;5044410;28;20995;-72
2023/10/14 00:26:55;;;;;;;3.37;2.80;;;26.10;64.00;;;;;;5051437;28;20475;-71
2023/10/14 00:29:24;;;;;;;3.77;3.37;;;26.10;64.10;;;;;;5049400;28;20461;-72
2023/10/14 00:31:54;;;;;;;3.50;3.20;;;26.10;63.60;;;;;;5067610;28;21011;-71
2023/10/14 00:34:23;;;;;;;3.27;3.07;;;26.10;63.70;;;;;;5054809;28;20471;-72
2023/10/14 00:36:53;;;;;;;3.30;3.00;;;26.10;63.50;;;;;;5042403;28;21273;-73
2023/10/14 00:39:26;;;;;;;3.87;3.20;;;26.00;63.50;;;;;;5041779;28;20539;-71
2023/10/14 00:41:56;;;;;;;3.43;3.13;;;26.00;63.40;;;;;;5043861;28;20473;-71
2023/10/14 00:44:25;;;;;;;3.53;3.13;;;26.00;63.70;;;;;;5031010;28;20443;-72
2023/10/14 00:46:56;;;;;;;3.03;2.83;;;26.00;63.90;;;;;;5070829;28;20909;-71
2023/10/14 00:49:30;;;;;;;3.90;3.33;;;26.00;63.60;;;;;;5061052;28;20490;-71
2023/10/14 00:52:05;;;;;;;3.40;3.10;;;26.00;63.70;;;;;;5043212;28;20872;-72
2023/10/14 00:54:51;;;;;;;3.00;2.70;;;26.00;63.50;;;;;;5035029;28;21004;-73
2023/10/14 00:57:21;;;;;;;3.30;3.00;;;26.00;63.40;;;;;;5045275;28;20503;-73
2023/10/14 00:59:53;;;;;;;3.00;2.80;;;26.00;63.60;;;;;;5030810;28;20486;-73
2023/10/14 01:02:29;;;;;;;3.03;2.83;;;26.00;63.50;;;;;;5030055;28;20430;-72
2023/10/14 01:05:07;;;;;;;3.33;3.00;;;26.00;63.60;;;;;;5031425;28;20515;-72
2023/10/14 01:07:38;;;;;;;2.60;2.40;;;26.00;64.10;;;;;;5044083;28;20472;-72
2023/10/14 01:10:10;;;;;;;3.10;2.80;;;26.00;64.10;;;;;;5044262;28;20472;-72
2023/10/14 01:12:44;;;;;;;3.30;3.10;;;26.00;64.10;;;;;;5040025;28;20458;-73
2023/10/14 01:15:20;;;;;;;2.70;2.50;;;26.00;64.00;;;;;;5050401;28;20445;-72
2023/10/14 01:17:53;;;;;;;3.50;3.20;;;26.00;64.20;;;;;;5056975;28;20457;-73
2023/10/14 01:20:37;;;;;;;4.13;3.73;;;26.00;64.00;;;;;;5053250;28;20542;-72
2023/10/14 01:23:14;;;;;;;3.63;3.33;;;26.00;64.00;;;;;;5049208;28;20474;-72
2023/10/14 01:25:47;;;;;;;3.70;3.20;;;26.00;63.70;;;;;;5044421;28;20950;-72
2023/10/14 01:28:21;;;;;;;3.00;2.80;;;26.00;63.80;;;;;;5072813;28;20471;-72
2023/10/14 01:31:10;;;;;;;3.77;3.47;;;26.00;64.10;;;;;;5041841;28;20553;-72
2023/10/14 01:33:39;;;;;;;4.80;3.17;;;26.00;64.10;;;;;;5042679;28;20466;-72
2023/10/14 01:36:11;;;;;;;3.17;2.97;;;26.00;64.10;;;;;;5035755;28;20461;-72
2023/10/14 01:38:41;;;;;;;2.93;2.73;;;26.00;64.20;;;;;;5040991;28;20548;-72
2023/10/14 01:41:14;;;;;;;4.13;3.23;;;26.00;64.20;;;;;;5033200;28;20927;-72
2023/10/14 01:43:43;;;;;;;4.50;3.40;;;26.00;63.90;;;;;;5040847;28;20801;-71
2023/10/14 01:46:11;;;;;;;3.30;3.10;;;26.00;64.20;;;;;;5038853;28;20458;-72
2023/10/14 01:48:41;;;;;;;3.70;3.40;;;26.00;64.20;;;;;;5041418;28;20500;-72
2023/10/14 01:51:10;;;;;;;3.50;3.20;;;26.00;64.20;;;;;;5036157;28;20497;-72
2023/10/14 01:53:38;;;;;;;3.30;3.00;;;26.00;64.20;;;;;;5043286;28;20515;-72
2023/10/14 01:56:08;;;;;;;3.60;3.30;;;26.00;64.20;;;;;;5037029;28;20473;-72
2023/10/14 01:58:40;;;;;;;3.30;3.10;;;26.00;64.20;;;;;;5054890;28;20961;-72
2023/10/14 02:01:15;;;;;;;3.40;3.10;;;26.00;64.20;;;;;;5035502;28;20461;-72
2023/10/14 02:03:46;;;;;;;3.63;3.10;;;26.00;64.20;;;;;;5031531;28;20457;-72
2023/10/14 02:06:18;;;;;;;3.13;2.90;;;26.00;64.30;;;;;;5043820;28;20522;-71
2023/10/14 02:08:48;;;;;;;3.60;3.30;;;26.00;64.30;;;;;;5047047;28;20482;-72
2023/10/14 02:11:20;;;;;;;3.57;3.27;;;26.00;64.30;;;;;;5040705;28;20459;-71
2023/10/14 02:13:51;;;;;;;4.93;3.40;;;26.00;64.30;;;;;;5041437;28;20488;-72
2023/10/14 02:16:24;;;;;;;3.30;3.00;;;26.00;64.30;;;;;;5031985;28;20541;-72
2023/10/14 02:19:00;;;;;;;3.33;3.03;;;26.00;64.30;;;;;;5055297;28;20466;-71
2023/10/14 02:21:35;;;;;;;4.27;2.77;;;26.00;64.30;;;;;;5041268;28;20486;-72
2023/10/14 02:24:09;;;;;;;4.20;3.10;;;26.00;64.30;;;;;;5045371;28;20472;-73
2023/10/14 02:26:39;;;;;;;3.83;3.53;;;26.00;64.30;;;;;;5076379;28;20976;-72
2023/10/14 02:29:09;;;;;;;3.03;2.83;;;25.90;64.30;;;;;;5039692;28;20462;-72
2023/10/14 02:31:37;;;;;;;2.80;2.60;;;25.90;64.20;;;;;;5040673;28;20473;-73
2023/10/14 02:34:07;;;;;;;2.87;2.67;;;25.90;64.30;;;;;;5037220;28;20494;-72
2023/10/14 02:36:41;;;;;;;3.20;3.00;;;25.90;64.20;;;;;;5056550;28;20465;-72
2023/10/14 02:39:14;;;;;;;4.30;3.90;;;25.90;64.20;;;;;;5040297;28;20468;-72
2023/10/14 02:41:58;;;;;;;3.10;2.87;;;25.90;64.10;;;;;;5043471;28;20464;-72
2023/10/14 02:44:32;;;;;;;2.93;2.70;;;25.90;64.20;;;;;;5040166;28;20562;-72
2023/10/14 02:47:05;;;;;;;2.83;2.63;;;25.90;64.20;;;;;;5034769;28;20485;-72
2023/10/14 02:49:37;;;;;;;3.87;3.50;;;25.90;64.30;;;;;;5042394;28;20470;-73
2023/10/14 02:52:10;;;;;;;3.80;3.30;;;25.90;64.20;;;;;;5037715;28;20464;-72
2023/10/14 02:54:43;;;;;;;2.93;2.73;;;25.90;64.30;;;;;;5036288;28;20466;-71
2023/10/14 02:57:23;;;;;;;2.50;2.30;;;25.90;64.20;;;;;;5042037;28;20462;-73
2023/10/14 02:59:55;;;;;;;3.63;3.33;;;25.90;64.10;;;;;;5033280;28;20510;-73
2023/10/14 03:02:26;;;;;;;3.00;2.80;;;25.90;64.30;;;;;;5073337;28;20548;-72
2023/10/14 03:05:09;;;;;;;3.57;3.37;;;25.90;64.30;;;;;;5035134;28;20464;-72
2023/10/14 03:07:48;;;;;;;3.23;2.97;;;25.90;64.40;;;;;;5035381;28;20576;-72
2023/10/14 03:10:28;;;;;;;3.60;3.30;;;25.90;64.30;;;;;;5043361;28;20555;-72
2023/10/14 03:12:58;;;;;;;3.10;2.80;;;25.90;64.40;;;;;;5040543;28;20463;-72
2023/10/14 03:15:31;;;;;;;3.47;3.17;;;25.90;64.50;;;;;;5035085;28;20518;-71
2023/10/14 03:18:01;;;;;;;3.67;3.30;;;25.90;64.30;;;;;;5040426;28;20492;-73
2023/10/14 03:20:40;;;;;;;3.73;3.37;;;25.90;64.30;;;;;;5053741;28;20461;-72
2023/10/14 03:23:17;;;;;;;3.40;3.20;;;25.90;64.40;;;;;;5041397;28;20821;-71
2023/10/14 03:25:47;;;;;;;2.80;2.60;;;25.80;64.40;;;;;;5040353;28;20807;-72
2023/10/14 03:28:19;;;;;;;3.60;3.40;;;25.90;64.50;;;;;;5045669;28;20594;-72
2023/10/14 03:30:55;;;;;;;3.17;2.97;;;25.90;64.30;;;;;;5047494;28;20466;-72
2023/10/14 03:33:27;;;;;;;3.17;2.97;;;25.90;64.40;;;;;;5043144;28;20490;-72
2023/10/14 03:36:00;;;;;;;3.77;3.47;;;25.90;64.50;;;;;;5036684;28;20462;-72
2023/10/14 03:38:39;;;;;;;3.20;2.90;;;25.90;64.40;;;;;;5035557;28;20465;-72
2023/10/14 03:41:16;;;;;;;3.07;2.80;;;25.90;64.50;;;;;;5038472;28;20486;-72
2023/10/14 03:43:54;;;;;;;4.10;3.60;;;25.80;64.50;;;;;;5038059;28;20456;-72
2023/10/14 03:46:30;;;;;;;3.80;3.50;;;25.80;64.50;;;;;;5040621;28;20471;-72
2023/10/14 03:48:58;;;;;;;3.40;3.10;;;25.80;64.50;;;;;;5035132;28;20534;-72
2023/10/14 03:51:27;;;;;;;3.33;3.03;;;25.80;64.30;;;;;;5040891;28;20965;-72
2023/10/14 03:53:56;;;;;;;4.37;4.07;;;25.80;64.60;;;;;;5039115;28;20527;-71
2023/10/14 03:56:27;;;;;;;3.20;2.53;;;25.80;64.50;;;;;;5040783;28;20463;-73
2023/10/14 03:58:59;;;;;;;3.63;3.33;;;25.80;64.50;;;;;;5035704;28;20988;-71
2023/10/14 04:01:34;;;;;;;3.77;3.47;;;25.80;64.40;;;;;;5030337;28;20478;-72
2023/10/14 04:04:14;;;;;;;3.60;3.30;;;25.80;64.50;;;;;;5050266;28;20460;-73
2023/10/14 04:06:51;;;;;;;4.40;3.07;;;25.80;64.50;;;;;;5067367;28;20435;-72
2023/10/14 04:09:24;;;;;;;3.20;3.00;;;25.80;64.50;;;;;;5051994;28;20535;-73
2023/10/14 04:11:58;;;;;;;3.60;3.33;;;25.80;64.50;;;;;;5050442;28;21030;-72
2023/10/14 04:14:35;;;;;;;3.50;3.20;;;25.80;64.50;;;;;;5056352;28;20459;-73
2023/10/14 04:17:19;;;;;;;3.30;3.00;;;25.80;64.60;;;;;;5050530;28;20514;-73
2023/10/14 04:19:53;;;;;;;3.80;3.50;;;25.80;64.50;;;;;;5043092;28;20994;-73
2023/10/14 04:22:30;;;;;;;3.77;3.43;;;25.80;64.60;;;;;;5048056;28;20497;-73
2023/10/14 04:25:15;;;;;;;3.43;3.23;;;25.80;64.60;;;;;;5061879;28;20456;-72
2023/10/14 04:28:17;;;;;;;3.37;3.10;;;25.70;64.60;;;;;;5057524;28;20994;-72
2023/10/14 04:30:39;;;;;;;3.30;3.10;;;25.70;64.60;;;;;;5041058;28;20486;-73
2023/10/14 04:33:18;;;;;;;3.10;2.90;;;25.70;64.60;;;;;;5039004;28;20510;-73
2023/10/14 04:38:37;;;;;;;3.40;3.10;;;25.70;64.60;;;;;;5036347;28;20481;-72
2023/10/14 04:41:12;;;;;;;4.73;3.30;;;25.70;64.60;;;;;;5046706;28;20464;-73
2023/10/14 04:46:34;;;;;;;3.80;3.50;;;25.70;64.60;;;;;;5043531;28;20520;-73
2023/10/14 04:49:07;;;;;;;3.83;3.50;;;25.70;64.70;;;;;;5048648;28;20480;-72
2023/10/14 04:51:45;;;;;;;3.60;3.30;;;25.70;64.70;;;;;;5046923;28;20448;-73
2023/10/14 04:54:19;;;;;;;3.50;3.20;;;25.70;64.70;;;;;;5051304;28;20955;-72
2023/10/14 04:56:48;;;;;;;3.83;3.37;;;25.70;64.70;;;;;;5043786;28;20977;-72
2023/10/14 04:59:20;;;;;;;3.93;3.63;;;25.70;64.70;;;;;;5049326;28;20846;-72
2023/10/14 05:01:51;;;;;;;3.87;3.47;;;25.70;64.70;;;;;;5038247;28;20475;-72
2023/10/14 05:04:20;;;;;;;3.20;3.00;;;25.70;64.80;;;;;;5046414;28;20542;-72
2023/10/14 05:06:52;;;;;;;3.47;3.17;;;25.70;64.80;;;;;;5045170;28;20493;-72
2023/10/14 05:09:30;;;;;;;3.03;2.83;;;25.70;64.80;;;;;;5045355;28;20468;-73
2023/10/14 05:12:00;;;;;;;4.63;3.20;;;25.70;64.80;;;;;;5043608;28;20539;-72
2023/10/14 05:14:36;;;;;;;3.20;3.00;;;25.70;64.80;;;;;;5048844;28;20459;-73
2023/10/14 05:17:16;;;;;;;3.47;3.23;;;25.70;64.80;;;;;;5051296;28;20955;-72
2023/10/14 05:19:54;;;;;;;3.23;2.93;;;25.70;64.80;;;;;;5054141;28;20431;-72
2023/10/14 05:22:26;;;;;;;3.63;3.33;;;25.70;64.80;;;;;;5053425;28;20461;-73
2023/10/14 05:25:02;;;;;;;3.30;3.10;;;25.70;64.80;;;;;;5053608;28;20979;-73
2023/10/14 05:27:45;;;;;;;4.00;3.70;;;25.70;64.90;;;;;;5046891;28;20801;-71
2023/10/14 05:30:21;;;;;;;3.03;2.83;;;25.70;64.90;;;;;;5042920;28;20523;-72
2023/10/14 05:32:52;;;;;;;3.63;3.30;;;25.70;64.90;;;;;;5048357;28;20867;-72
2023/10/14 05:35:22;;;;;;;4.03;3.73;;;25.70;64.90;;;;;;5047399;28;20820;-72
2023/10/14 05:37:51;;;;;;;3.80;2.83;;;25.70;64.80;;;;;;5050787;28;20460;-72
2023/10/14 05:40:21;;;;;;;4.60;3.73;;;25.70;64.80;;;;;;5053755;28;20471;-73
2023/10/14 05:42:50;;;;;;;2.87;2.67;;;25.70;64.90;;;;;;5051234;28;20470;-72
2023/10/14 05:45:21;;;;;;;3.37;3.07;;;25.70;64.90;;;;;;5041489;28;20466;-72
2023/10/14 05:47:51;;;;;;;3.77;3.40;;;25.70;64.90;;;;;;5035406;28;20541;-73
2023/10/14 05:50:20;;;;;;;3.60;3.30;;;25.70;64.90;;;;;;5050332;28;20557;-72
2023/10/14 05:52:49;;;;;;;6.53;3.47;;;25.70;64.90;;;;;;5041555;28;20465;-73
2023/10/14 05:55:19;;;;;;;3.73;3.43;;;25.70;64.90;;;;;;5035983;28;20464;-73
2023/10/14 05:57:49;;;;;;;5.00;3.30;;;25.70;64.90;;;;;;5035614;28;20467;-72
2023/10/14 06:00:25;;;;;;;3.33;3.13;;;25.70;65.00;;;;;;5038217;28;20490;-73
2023/10/14 06:02:56;;;;;;;3.00;2.73;;;25.70;64.90;;;;;;5040742;28;20456;-72
2023/10/14 06:05:26;;;;;;;4.57;3.70;;;25.70;64.90;;;;;;5039712;28;20981;-72
2023/10/14 06:08:05;;;;;;;3.50;3.20;;;25.70;64.90;;;;;;5037316;28;20448;-71
2023/10/14 06:10:37;;;;;;;3.70;3.40;;;25.70;65.00;;;;;;5046671;28;20476;-72
2023/10/14 06:13:06;;;;;;;3.50;3.30;;;25.70;65.00;;;;;;5034617;28;20457;-73
2023/10/14 06:15:39;;;;;;;9.20;3.43;;;25.70;65.00;;;;;;5048795;28;20465;-74
2023/10/14 06:18:09;;;;;;;4.40;4.00;;;25.70;65.00;;;;;;5070195;28;20461;-73
2023/10/14 06:20:37;;;;;;;3.80;3.50;;;25.70;65.10;;;;;;5048292;28;20456;-73
2023/10/14 06:23:08;;;;;;;5.13;3.90;;;25.70;65.10;;;;;;5051051;28;20464;-74
2023/10/14 06:25:38;;;;;;;4.27;3.30;;;25.70;65.10;;;;;;5047449;28;20452;-73
2023/10/14 06:28:08;;;;;;;4.40;3.33;;;25.70;65.10;;;;;;5044877;28;20470;-74
2023/10/14 06:30:36;;;;;;;3.40;3.10;;;25.70;65.10;;;;;;5053987;28;20487;-73
2023/10/14 06:33:07;;;;;;;5.80;4.03;;;25.70;65.10;;;;;;5043596;28;20462;-71
2023/10/14 06:35:42;;;;;;;3.97;3.43;;;25.70;65.10;;;;;;5038472;28;20469;-72
2023/10/14 06:38:17;;;;;;;3.70;3.10;;;25.70;65.10;;;;;;5035203;28;20507;-73
2023/10/14 06:40:52;;;;;;;5.23;3.63;;;25.70;65.10;;;;;;5069665;28;20466;-71
2023/10/14 06:43:22;;;;;;;3.57;3.27;;;25.70;65.10;;;;;;5038695;28;20578;-72
2023/10/14 06:45:53;;;;;;;6.50;5.00;;;25.70;65.20;;;;;;5040776;28;20518;-76
2023/10/14 06:48:23;;;;;;;11.57;5.20;;;25.70;65.30;;;;;;5038678;28;20486;-74
2023/10/14 06:50:54;;;;;;;4.23;3.83;;;25.70;65.30;;;;;;5042042;28;20508;-76
2023/10/14 06:53:27;;;;;;;5.60;4.53;;;25.70;65.30;;;;;;5052335;28;21028;-73
2023/10/14 06:55:56;;;;;;;5.03;4.63;;;25.70;65.30;;;;;;5043698;28;20468;-75
2023/10/14 06:58:27;;;;;;;4.17;3.10;;;25.70;65.30;;;;;;5039004;28;20851;-75
2023/10/14 07:00:58;;;;;;;5.20;4.70;;;25.70;65.30;;;;;;5041726;28;20473;-75
2023/10/14 07:03:29;;;;;;;4.77;3.13;;;25.70;65.30;;;;;;5049650;28;20552;-75
2023/10/14 07:06:04;;;;;;;4.87;4.27;;;25.70;65.30;;;;;;5049552;28;20457;-75
2023/10/14 07:08:33;;;;;;;6.63;4.77;;;25.70;65.30;;;;;;5046578;28;20455;-74
2023/10/14 07:11:01;;;;;;;4.50;3.90;;;25.70;65.30;;;;;;5032275;28;20842;-76
2023/10/14 07:13:30;;;;;;;5.07;3.97;;;25.70;65.20;;;;;;5051646;28;20966;-76
2023/10/14 07:16:06;;;;;;;5.63;4.03;;;25.70;65.30;;;;;;5041180;28;20557;-75
2023/10/14 07:18:36;;;;;;;4.00;3.57;;;25.70;65.30;;;;;;5040745;28;20489;-75
2023/10/14 07:21:08;;;;;;;7.23;4.00;;;25.70;65.20;;;;;;5043835;28;20465;-75
2023/10/14 07:23:37;;;;;;;5.13;3.90;;;25.70;65.30;;;;;;5047354;28;20542;-76
2023/10/14 07:26:11;;;;;;;4.30;3.90;;;25.70;65.30;;;;;;5042002;28;20490;-76
2023/10/14 07:28:42;;;;;;;7.60;4.03;;;25.70;65.20;;;;;;5038640;28;20448;-75
2023/10/14 07:31:12;;;;;;;4.20;3.80;;;25.70;65.20;;;;;;5050174;28;20547;-75
2023/10/14 07:33:43;;;;;;;3.60;3.40;;;25.70;65.20;;;;;;5055865;28;20471;-76
2023/10/14 07:36:12;;;;;;;3.80;3.40;;;25.70;65.20;;;;;;5051180;28;20458;-75
2023/10/14 07:38:42;;;;;;;4.90;4.50;;;25.70;65.20;;;;;;5036739;28;20462;-75
2023/10/14 07:41:12;;;;;;;4.40;3.60;;;25.70;65.20;;;;;;5043953;28;20541;-76
2023/10/14 07:43:41;;;;;;;4.53;3.90;;;25.70;65.20;;;;;;5042996;28;20456;-75
2023/10/14 07:46:09;;;;;;;6.43;4.50;;;25.80;65.20;;;;;;5039760;28;20492;-74
2023/10/14 07:48:40;;;;;;;8.53;4.60;;;25.70;65.20;;;;;;5039181;28;20461;-74
2023/10/14 07:51:10;;;;;;;3.77;3.47;;;25.80;65.20;;;;;;5039747;28;20487;-74
2023/10/14 07:53:57;;;;;;;5.60;4.30;;;25.80;65.10;;;;;;5042292;28;20464;-75
2023/10/14 07:56:25;;;;;;;3.80;3.50;;;25.80;65.10;;;;;;5069672;28;20457;-75
2023/10/14 07:58:55;;;;;;;5.47;3.50;;;25.80;65.10;;;;;;5041132;28;20840;-75
2023/10/14 08:01:25;;;;;;;4.30;3.73;;;25.80;65.10;;;;;;5039495;28;20462;-73
2023/10/14 08:03:56;;;;;;;3.83;3.53;;;25.80;65.10;;;;;;5038693;28;20557;-75
2023/10/14 08:06:27;;;;;;;4.23;3.93;;;25.90;65.00;;;;;;5041260;28;20469;-74
2023/10/14 08:08:56;;;;;;;3.90;3.60;;;25.80;65.00;;;;;;5036791;28;20980;-75
2023/10/14 08:11:24;;;;;;;3.80;3.53;;;25.90;65.00;;;;;;5036958;28;20478;-75
2023/10/14 08:13:54;;;;;;;3.87;3.50;;;25.90;65.00;;;;;;5041312;28;20477;-75
2023/10/14 08:16:22;;;;;;;5.83;4.10;;;25.90;65.00;;;;;;5038996;28;20960;-74
2023/10/14 08:18:53;;;;;;;3.73;3.30;;;25.90;65.00;;;;;;5030887;28;20497;-74
2023/10/14 08:21:22;;;;;;;3.57;3.27;;;25.90;65.00;;;;;;5040405;28;20468;-74
2023/10/14 08:23:52;;;;;;;4.20;3.80;;;25.90;65.00;;;;;;5038962;28;20498;-74
2023/10/14 08:26:20;;;;;;;3.73;3.43;;;25.90;65.00;;;;;;5039852;28;20462;-76
2023/10/14 08:28:50;;;;;;;4.50;3.90;;;25.90;65.00;;;;;;5034632;28;20484;-74
2023/10/14 08:31:19;;;;;;;4.47;2.90;;;25.90;64.90;;;;;;5040327;28;20480;-74
2023/10/14 08:33:47;;;;;;;5.83;4.00;;;25.90;64.90;;;;;;5033913;28;20553;-76
2023/10/14 08:36:16;;;;;;;4.20;3.80;;;25.90;64.90;;;;;;5033571;28;20540;-76
2023/10/14 08:38:47;;;;;;;4.33;3.90;;;25.90;65.00;;;;;;5040882;28;20466;-75
2023/10/14 08:41:17;;;;;;;3.90;3.60;;;25.90;64.90;;;;;;5036110;28;20510;-75
2023/10/14 08:43:49;;;;;;;4.23;3.33;;;25.90;65.00;;;;;;5032895;28;20461;-73
2023/10/14 08:46:23;;;;;;;3.70;3.40;;;25.90;65.00;;;;;;5037188;28;20516;-75
2023/10/14 08:48:53;;;;;;;4.10;3.70;;;25.90;64.90;;;;;;5038842;28;20468;-74
2023/10/14 08:51:24;;;;;;;4.07;3.70;;;25.90;65.00;;;;;;5038585;28;20999;-75
2023/10/14 08:54:10;;;;;;;3.60;3.30;;;25.90;65.00;;;;;;5036604;28;20465;-75
2023/10/14 08:56:43;;;;;;;3.50;3.20;;;25.90;64.90;;;;;;5036293;28;20473;-75
2023/10/14 08:59:12;;;;;;;4.27;3.87;;;26.00;64.90;;;;;;5035324;28;20501;-76
2023/10/14 09:01:43;;;;;;;3.50;3.27;;;26.00;64.90;;;;;;5042358;28;21073;-76
2023/10/14 09:04:15;;;;;;;3.90;3.60;;;26.00;64.90;;;;;;5055212;28;20458;-75
2023/10/14 09:06:44;;;;;;;3.93;3.53;;;26.00;64.90;;;;;;5039213;28;20475;-76
2023/10/14 09:09:20;;;;;;;3.73;3.43;;;26.00;64.90;;;;;;5038615;28;20962;-75
2023/10/14 09:11:51;;;;;;;3.90;3.37;;;26.00;64.90;;;;;;5039620;28;20481;-75
2023/10/14 09:14:20;;;;;;;3.20;3.00;;;26.00;64.80;;;;;;5035580;28;20462;-74
2023/10/14 09:16:49;;;;;;;4.27;3.87;;;26.00;64.80;;;;;;5038557;28;20525;-76
2023/10/14 09:19:17;;;;;;;3.70;3.40;;;26.00;64.80;;;;;;5035701;28;20492;-75
2023/10/14 09:21:47;;;;;;;3.93;3.63;;;26.00;64.80;;;;;;5038357;28;20457;-76
2023/10/14 09:24:18;;;;;;;3.50;3.20;;;26.10;64.80;;;;;;5041265;28;20971;-76
2023/10/14 09:26:47;;;;;;;5.30;3.37;;;26.10;64.80;;;;;;5046647;28;20443;-75
2023/10/14 09:29:19;;;;;;;3.90;3.60;;;26.10;64.70;;;;;;5042366;28;20474;-74
2023/10/14 09:31:48;;;;;;;4.60;3.53;;;26.10;64.70;;;;;;5036361;28;20483;-76
2023/10/14 09:34:22;;;;;;;3.60;3.30;;;26.10;64.60;;;;;;5031796;28;20466;-75
2023/10/14 09:36:52;;;;;;;4.03;3.73;;;26.10;64.60;;;;;;5051654;28;20471;-73
2023/10/14 09:39:25;;;;;;;3.47;3.27;;;26.20;64.40;;;;;;5035412;28;21982;-75
2023/10/14 09:41:54;;;;;;;3.50;3.30;;;26.20;64.40;;;;;;5040075;28;20458;-74
2023/10/14 09:44:27;;;;;;;4.00;3.70;;;26.20;64.30;;;;;;5038238;28;20476;-74
2023/10/14 09:46:56;;;;;;;3.10;2.90;;;26.20;64.30;;;;;;5036641;28;20962;-75
2023/10/14 09:49:26;;;;;;;3.87;3.57;;;26.20;64.30;;;;;;5036271;28;20460;-76
2023/10/14 09:51:59;;;;;;;4.43;4.03;;;26.20;64.30;;;;;;5037548;28;20467;-75
2023/10/14 09:54:31;;;;;;;3.73;3.30;;;26.20;64.30;;;;;;5035297;28;20965;-76
2023/10/14 09:57:01;;;;;;;4.03;3.73;;;26.20;64.30;;;;;;5039213;28;20946;-73
2023/10/14 09:59:33;;;;;;;4.80;4.00;;;26.20;64.40;;;;;;5035344;28;20502;-75
2023/10/14 10:02:01;;;;;;;3.70;3.40;;;26.20;64.40;;;;;;5031321;28;20459;-75
2023/10/14 10:04:34;;;;;;;5.47;4.10;;;26.20;64.40;;;;;;5066231;28;20493;-75
2023/10/14 10:07:15;;;;;;;3.97;3.63;;;26.20;64.40;;;;;;5038107;28;20564;-75
2023/10/14 10:10:11;;;;;;;3.80;3.50;;;26.20;64.40;;;;;;5041023;28;20459;-74
2023/10/14 10:12:42;;;;;;;3.73;3.43;;;26.30;64.40;;;;;;5041354;28;21204;-74
2023/10/14 10:15:19;;;;;;;4.23;3.93;;;26.30;64.30;;;;;;5037744;28;20594;-73
2023/10/14 10:17:56;;;;;;;3.90;3.43;;;26.30;64.30;;;;;;5052107;28;20462;-76
2023/10/14 10:20:35;;;;;;;4.67;4.27;;;26.30;64.30;;;;;;5046958;28;20470;-76
2023/10/14 10:23:06;;;;;;;4.87;3.80;;;26.30;64.30;;;;;;5047850;28;20459;-76
2023/10/14 10:25:49;;;;;;;3.70;3.37;;;26.30;64.20;;;;;;5049638;28;20466;-76
2023/10/14 10:28:40;;;;;;;4.10;3.70;;;26.30;64.20;;;;;;5046303;28;20498;-75
2023/10/14 10:31:14;;;;;;;3.80;3.47;;;26.30;64.10;;;;;;5037527;28;20465;-76
2023/10/14 10:33:53;;;;;;;5.50;3.67;;;26.30;64.10;;;;;;5039066;28;20454;-76
2023/10/14 10:36:24;;;;;;;4.07;3.63;;;26.30;64.10;;;;;;5034709;28;20556;-76
2023/10/14 10:38:54;;;;;;;8.40;3.40;;;26.30;64.00;;;;;;5038525;28;21037;-74
2023/10/14 10:41:27;;;;;;;4.63;4.00;;;26.30;64.10;;;;;;5034948;28;20562;-74
2023/10/14 10:44:02;;;;;;;4.43;3.50;;;26.30;64.10;;;;;;5037947;28;20484;-74
2023/10/14 10:46:38;;;;;;;3.57;3.27;;;26.30;64.10;;;;;;5032810;28;20464;-73
2023/10/14 10:49:07;;;;;;;3.90;3.60;;;26.30;64.20;;;;;;5044339;28;20544;-76
2023/10/14 10:51:36;;;;;;;4.37;3.97;;;26.20;64.40;;;;;;5046783;28;20882;-76
2023/10/14 10:54:04;;;;;;;3.90;3.50;;;26.20;64.60;;;;;;5045458;28;20464;-75
2023/10/14 10:56:34;;;;;;;4.50;3.70;;;26.20;64.80;;;;;;5047858;28;20477;-74
2023/10/14 10:59:04;;;;;;;3.07;2.87;;;26.20;64.90;;;;;;5040187;28;20501;-74
2023/10/14 11:01:34;;;;;;;5.57;4.17;;;26.20;65.10;;;;;;5038825;28;20470;-75
2023/10/14 11:04:08;;;;;;;3.73;3.43;;;26.10;65.10;;;;;;5038351;28;20519;-74
2023/10/14 11:06:37;;;;;;;3.97;3.63;;;26.10;65.20;;;;;;5032921;28;20476;-74
2023/10/14 11:09:07;;;;;;;3.90;3.60;;;26.10;65.10;;;;;;5076358;28;20489;-74
2023/10/14 11:11:37;;;;;;;4.37;3.97;;;26.10;65.10;;;;;;5043123;28;20452;-75
2023/10/14 11:14:18;;;;;;;3.77;3.47;;;26.10;65.30;;;;;;5037193;28;20524;-74
2023/10/14 11:16:52;;;;;;;3.80;3.50;;;26.10;65.30;;;;;;5043141;28;20547;-75
2023/10/14 11:19:21;;;;;;;4.17;3.80;;;26.10;65.30;;;;;;5035207;28;20867;-74
2023/10/14 11:21:52;;;;;;;5.03;4.30;;;26.10;65.40;;;;;;5070487;28;20553;-73
2023/10/14 11:24:21;;;;;;;4.40;4.10;;;26.00;65.50;;;;;;5034386;28;20466;-73
2023/10/14 11:26:50;;;;;;;5.17;3.90;;;26.10;65.40;;;;;;5033383;28;20468;-73
2023/10/14 11:29:23;;;;;;;6.47;3.37;;;26.00;65.50;;;;;;5037622;28;20910;-73
2023/10/14 11:31:56;;;;;;;3.80;3.40;;;26.00;65.50;;;;;;5055542;28;20513;-73
2023/10/14 11:34:29;;;;;;;4.10;3.60;;;26.10;65.50;;;;;;5037165;28;20470;-73
2023/10/14 11:36:57;;;;;;;4.13;3.40;;;26.10;65.20;;;;;;5042486;28;20964;-73
2023/10/14 11:39:25;;;;;;;4.17;3.77;;;26.00;65.30;;;;;;5044098;28;20458;-73
2023/10/14 11:41:54;;;;;;;3.50;2.97;;;26.00;65.40;;;;;;5042247;28;20475;-72
2023/10/14 11:44:22;;;;;;;5.40;3.70;;;26.00;65.30;;;;;;5053379;28;20457;-74
2023/10/14 11:46:51;;;;;;;6.67;3.77;;;26.00;65.30;;;;;;5043937;28;20474;-73
2023/10/14 11:49:21;;;;;;;3.83;3.20;;;26.00;65.30;;;;;;5029777;28;20933;-74
2023/10/14 11:51:50;;;;;;;4.80;3.50;;;25.90;65.30;;;;;;5046967;28;20500;-74
2023/10/14 11:54:18;;;;;;;5.07;3.90;;;25.90;65.40;;;;;;5040192;28;20466;-74
2023/10/14 11:56:47;;;;;;;3.10;2.90;;;25.90;65.40;;;;;;5059867;28;20463;-74
2023/10/14 11:59:15;;;;;;;4.47;4.07;;;25.90;65.50;;;;;;5032089;28;20535;-74
2023/10/14 12:01:45;;;;;;;3.50;3.27;;;25.90;65.50;;;;;;5044635;28;20454;-74
2023/10/14 12:04:14;;;;;;;4.23;3.57;;;25.90;65.50;;;;;;5047511;28;20550;-73
2023/10/14 12:06:45;;;;;;;4.87;3.90;;;25.80;65.50;;;;;;5039123;28;20519;-73
2023/10/14 12:09:14;;;;;;;4.40;3.13;;;25.80;65.60;;;;;;5030399;28;20474;-74
2023/10/14 12:11:42;;;;;;;4.00;3.60;;;25.80;65.60;;;;;;5038831;28;20458;-74
2023/10/14 12:14:11;;;;;;;5.53;3.90;;;25.80;65.60;;;;;;5043559;28;20479;-74
2023/10/14 12:16:41;;;;;;;3.13;2.93;;;25.80;65.70;;;;;;5041387;28;20460;-73
2023/10/14 12:19:11;;;;;;;3.00;2.80;;;25.80;65.60;;;;;;5043630;28;20492;-74
2023/10/14 12:21:41;;;;;;;3.43;3.13;;;25.80;65.60;;;;;;5051384;28;20929;-73
2023/10/14 12:24:12;;;;;;;3.70;2.90;;;25.80;65.70;;;;;;5051028;28;20448;-73
2023/10/14 12:26:44;;;;;;;3.10;2.90;;;25.80;65.60;;;;;;5051162;28;20902;-73
2023/10/14 12:29:13;;;;;;;3.60;3.27;;;25.80;65.60;;;;;;5051697;28;20503;-73
2023/10/14 12:31:44;;;;;;;3.57;3.30;;;25.80;65.70;;;;;;5051071;28;20546;-73
2023/10/14 12:34:16;;;;;;;3.27;3.07;;;25.70;65.70;;;;;;5038828;28;20478;-73
2023/10/14 12:36:45;;;;;;;4.27;3.17;;;25.70;65.80;;;;;;5043644;28;21262;-73
2023/10/14 12:39:26;;;;;;;3.07;2.87;;;25.70;65.70;;;;;;5045397;28;20546;-73
2023/10/14 12:42:02;;;;;;;2.93;2.73;;;25.70;65.70;;;;;;5051341;28;20441;-74
2023/10/14 12:44:32;;;;;;;4.30;3.03;;;25.70;65.70;;;;;;5045269;28;20468;-74
2023/10/14 12:47:10;;;;;;;2.73;2.53;;;25.70;65.70;;;;;;5049354;28;20458;-73
2023/10/14 12:49:40;;;;;;;3.23;2.67;;;25.80;65.60;;;;;;5038902;28;20837;-73
2023/10/14 12:52:13;;;;;;;3.10;2.87;;;25.80;65.60;;;;;;5034548;28;20433;-74
2023/10/14 12:54:45;;;;;;;3.23;2.97;;;25.80;65.50;;;;;;5045506;28;20458;-73
2023/10/14 12:57:14;;;;;;;2.70;2.50;;;25.90;65.40;;;;;;5031001;28;20463;-74
2023/10/14 12:59:43;;;;;;;3.03;2.83;;;25.90;65.30;;;;;;5035515;28;20496;-74
2023/10/14 13:02:11;;;;;;;2.83;2.63;;;25.90;65.50;;;;;;5049083;28;20461;-73
2023/10/14 13:04:42;;;;;;;4.30;2.73;;;25.90;65.30;;;;;;5046027;28;20447;-74
2023/10/14 13:07:11;;;;;;;2.77;2.57;;;25.90;65.30;;;;;;5034594;28;20550;-74
2023/10/14 13:09:40;;;;;;;2.10;2.00;;;25.90;65.30;;;;;;5047046;28;20459;-74
2023/10/14 13:12:15;;;;;;;2.47;2.27;;;25.90;65.40;;;;;;5045432;28;20565;-73
2023/10/14 13:14:45;;;;;;;2.97;2.77;;;25.90;65.40;;;;;;5049556;28;20526;-73
2023/10/14 13:17:13;;;;;;;2.37;2.27;;;25.90;65.40;;;;;;5042065;28;20929;-73
2023/10/14 13:19:42;;;;;;;3.47;2.20;;;25.80;65.40;;;;;;5070910;28;20448;-73